createdAt,value
2019-02-21T00:01:25.907Z,99.90
2019-02-21T00:03:52.416Z,99.90
2019-02-21T00:06:18.841Z,99.90
2019-02-21T00:08:45.245Z,99.90
2019-02-21T00:11:11.749Z,99.90
2019-02-21T00:13:38.243Z,99.90
2019-02-21T00:16:04.938Z,99.90
2019-02-21T00:18:31.647Z,99.90
2019-02-21T00:20:58.471Z,99.90
2019-02-21T00:23:25.099Z,99.90
2019-02-21T00:25:52.660Z,99.90
2019-02-21T00:28:19.139Z,99.90
2019-02-21T00:30:45.648Z,99.90
2019-02-21T00:33:12.057Z,99.90
2019-02-21T00:35:38.794Z,99.90
2019-02-21T00:38:05.579Z,99.90
2019-02-21T00:40:32.105Z,99.90
2019-02-21T00:42:58.543Z,99.90
2019-02-21T00:45:25.084Z,99.90
2019-02-21T00:47:51.770Z,99.90
2019-02-21T00:50:18.294Z,99.90
2019-02-21T00:52:45.056Z,99.90
2019-02-21T00:55:11.704Z,99.90
2019-02-21T00:57:38.220Z,99.90
2019-02-21T01:00:08.833Z,99.90
2019-02-21T01:02:35.595Z,99.90
2019-02-21T01:05:02.489Z,99.90
2019-02-21T01:07:29.092Z,99.90
2019-02-21T01:09:57.510Z,99.90
2019-02-21T01:12:23.955Z,99.90
2019-02-21T01:14:50.576Z,99.90
2019-02-21T01:17:17.030Z,99.90
2019-02-21T01:19:43.555Z,99.90
2019-02-21T01:22:09.995Z,99.90
2019-02-21T01:24:36.408Z,99.90
2019-02-21T01:27:03.254Z,99.90
2019-02-21T01:29:30.049Z,99.90
2019-02-21T01:31:56.675Z,99.90
2019-02-21T01:34:23.392Z,99.90
2019-02-21T01:36:49.930Z,99.90
2019-02-21T01:39:16.715Z,99.90
2019-02-21T01:41:43.175Z,99.90
2019-02-21T01:44:09.619Z,99.90
2019-02-21T01:46:36.147Z,99.90
2019-02-21T01:49:02.747Z,99.90
2019-02-21T01:51:29.249Z,99.90
2019-02-21T01:53:55.768Z,99.90
2019-02-21T01:56:22.485Z,99.90
2019-02-21T01:58:49.258Z,99.90
2019-02-21T02:01:15.984Z,99.90
2019-02-21T02:03:42.547Z,99.90
2019-02-21T02:06:10.092Z,99.90
2019-02-21T02:08:36.890Z,99.90
2019-02-21T02:11:03.431Z,99.90
2019-02-21T02:13:30.143Z,99.90
2019-02-21T02:15:56.571Z,99.90
2019-02-21T02:18:23.131Z,99.90
2019-02-21T02:20:49.861Z,99.90
2019-02-21T02:23:16.368Z,99.90
2019-02-21T02:25:42.897Z,99.90
2019-02-21T02:28:09.404Z,99.90
2019-02-21T02:30:35.914Z,99.90
2019-02-21T02:33:03.412Z,99.90
2019-02-21T02:35:30.199Z,99.90
2019-02-21T02:37:56.652Z,99.90
2019-02-21T02:40:23.422Z,99.90
2019-02-21T02:42:50.222Z,99.90
2019-02-21T02:45:16.813Z,99.90
2019-02-21T02:47:44.313Z,99.90
2019-02-21T02:50:10.879Z,99.90
2019-02-21T02:52:37.683Z,99.90
2019-02-21T02:55:04.670Z,99.90
2019-02-21T02:57:31.437Z,99.90
2019-02-21T02:59:57.962Z,99.90
2019-02-21T03:02:24.613Z,99.90
2019-02-21T03:04:51.169Z,99.90
2019-02-21T03:07:17.944Z,99.90
2019-02-21T03:09:46.376Z,99.90
2019-02-21T03:12:14.347Z,99.90
2019-02-21T03:14:40.862Z,99.90
2019-02-21T03:17:07.357Z,99.90
2019-02-21T03:19:33.788Z,99.90
2019-02-21T03:22:00.472Z,99.90
2019-02-21T03:24:27.041Z,99.90
2019-02-21T03:26:53.559Z,99.90
2019-02-21T03:29:20.875Z,99.90
2019-02-21T03:31:54.328Z,99.90
2019-02-21T03:34:16.325Z,99.90
2019-02-21T03:36:43.128Z,99.90
2019-02-21T03:39:09.677Z,99.90
2019-02-21T03:41:36.593Z,99.90
2019-02-21T03:44:03.400Z,99.90
2019-02-21T03:46:30.036Z,99.90
2019-02-21T03:48:56.730Z,99.90
2019-02-21T03:51:24.248Z,99.90
2019-02-21T03:53:50.962Z,99.90
2019-02-21T03:56:17.812Z,99.90
2019-02-21T03:58:44.331Z,99.90
2019-02-21T04:01:10.840Z,99.90
2019-02-21T04:03:37.507Z,99.90
2019-02-21T04:06:04.145Z,99.90
2019-02-21T04:08:30.957Z,99.90
2019-02-21T04:10:57.604Z,99.90
2019-02-21T04:13:24.122Z,99.90
2019-02-21T04:15:52.139Z,99.90
2019-02-21T04:18:18.932Z,99.90
2019-02-21T04:20:45.483Z,99.90
2019-02-21T04:23:12.184Z,99.90
2019-02-21T04:25:38.960Z,99.90
2019-02-21T04:28:05.595Z,99.90
2019-02-21T04:30:32.460Z,99.90
2019-02-21T04:32:59.330Z,99.90
2019-02-21T04:35:25.938Z,99.90
2019-02-21T04:37:52.748Z,99.90
2019-02-21T04:40:19.273Z,99.90
2019-02-21T04:42:45.783Z,99.90
2019-02-21T04:45:12.708Z,99.90
2019-02-21T04:47:39.221Z,99.90
2019-02-21T04:50:05.849Z,99.90
2019-02-21T04:52:32.657Z,99.90
2019-02-21T04:54:59.339Z,99.90
2019-02-21T04:57:27.207Z,99.90
2019-02-21T04:59:53.853Z,99.90
2019-02-21T05:02:28.419Z,99.90
2019-02-21T05:04:48.744Z,99.90
2019-02-21T05:07:15.252Z,99.90
2019-02-21T05:09:43.705Z,99.90
2019-02-21T05:12:10.358Z,99.90
2019-02-21T05:14:36.848Z,99.90
2019-02-21T05:17:03.483Z,99.90
2019-02-21T05:19:30.084Z,99.90
2019-02-21T05:21:56.638Z,99.90
2019-02-21T05:24:23.443Z,99.90
2019-02-21T05:26:51.876Z,99.90
2019-02-21T05:29:18.717Z,99.90
2019-02-21T05:32:02.448Z,99.90
2019-02-21T05:34:38.165Z,99.90
2019-02-21T05:37:21.935Z,99.90
2019-02-21T05:40:05.221Z,99.90
2019-02-21T05:42:45.849Z,99.90
2019-02-21T05:45:14.205Z,99.90
2019-02-21T05:47:42.626Z,99.90
2019-02-21T05:50:11.149Z,99.90
2019-02-21T05:52:57.768Z,99.90
2019-02-21T05:55:29.259Z,99.90
2019-02-21T05:58:00.981Z,99.90
2019-02-21T06:00:36.938Z,99.90
2019-02-21T06:03:22.311Z,99.90
2019-02-21T06:06:06.061Z,99.90
2019-02-21T06:08:40.493Z,99.90
2019-02-21T06:11:17.769Z,99.90
2019-02-21T06:13:48.199Z,99.90
2019-02-21T06:16:33.014Z,99.90
2019-02-21T06:19:16.433Z,99.90
2019-02-21T06:22:09.981Z,99.90
2019-02-21T06:24:42.213Z,99.90
2019-02-21T06:27:27.408Z,99.90
2019-02-21T06:30:07.994Z,99.90
2019-02-21T06:32:34.808Z,99.90
2019-02-21T06:35:02.793Z,99.90
2019-02-21T06:37:29.687Z,99.90
2019-02-21T06:39:56.404Z,99.90
2019-02-21T06:42:23.097Z,99.90
2019-02-21T06:44:49.623Z,99.90
2019-02-21T06:47:16.505Z,99.90
2019-02-21T06:49:44.138Z,99.90
2019-02-21T06:52:10.921Z,99.90
2019-02-21T06:54:37.540Z,99.90
2019-02-21T06:57:05.302Z,99.90
2019-02-21T06:59:41.902Z,99.90
2019-02-21T07:02:01.699Z,99.90
2019-02-21T07:04:28.213Z,99.90
2019-02-21T07:06:56.796Z,99.90
2019-02-21T07:09:23.348Z,99.90
2019-02-21T07:11:50.169Z,99.90
2019-02-21T07:14:18.807Z,99.90
2019-02-21T07:16:46.368Z,99.90
2019-02-21T07:19:13.066Z,99.90
2019-02-21T07:21:39.614Z,99.90
2019-02-21T07:24:06.163Z,99.90
2019-02-21T07:26:33.762Z,99.90
2019-02-21T07:29:01.701Z,99.90
2019-02-21T07:31:29.667Z,99.90
2019-02-21T07:33:56.918Z,99.90
2019-02-21T07:36:25.608Z,99.90
2019-02-21T07:38:52.065Z,99.90
2019-02-21T07:41:18.907Z,99.90
2019-02-21T07:43:45.461Z,99.90
2019-02-21T07:46:13.521Z,99.90
2019-02-21T07:48:41.088Z,99.90
2019-02-21T07:51:07.882Z,99.90
2019-02-21T07:53:36.500Z,99.90
2019-02-21T07:56:03.292Z,99.90
2019-02-21T07:58:29.704Z,99.90
2019-02-21T08:00:56.319Z,99.90
2019-02-21T08:03:30.250Z,99.90
2019-02-21T08:05:51.595Z,99.90
2019-02-21T08:08:20.993Z,99.90
2019-02-21T08:10:48.988Z,99.90
2019-02-21T08:13:15.501Z,99.90
2019-02-21T08:15:42.054Z,99.90
2019-02-21T08:18:08.831Z,99.90
2019-02-21T08:20:40.784Z,99.90
2019-02-21T08:23:07.745Z,99.90
2019-02-21T08:25:34.265Z,99.90
2019-02-21T08:28:00.767Z,99.90
2019-02-21T08:30:29.185Z,99.90
2019-02-21T08:33:00.003Z,99.90
2019-02-21T08:35:26.633Z,99.90
2019-02-21T08:37:53.252Z,99.90
2019-02-21T08:40:20.407Z,99.90
2019-02-21T08:42:48.954Z,99.90
2019-02-21T08:45:17.714Z,99.90
2019-02-21T08:47:44.964Z,99.90
2019-02-21T08:50:11.373Z,99.90
2019-02-21T08:52:37.906Z,99.90
2019-02-21T08:55:05.720Z,99.90
2019-02-21T08:57:32.589Z,99.90
2019-02-21T08:59:59.332Z,99.90
2019-02-21T09:02:26.048Z,99.90
2019-02-21T09:04:52.819Z,99.90
2019-02-21T09:07:20.378Z,99.90
2019-02-21T09:09:49.212Z,99.90
2019-02-21T09:12:15.976Z,99.90
2019-02-21T09:14:42.850Z,99.90
2019-02-21T09:17:09.621Z,99.90
2019-02-21T09:19:36.909Z,99.90
2019-02-21T09:22:03.488Z,99.90
2019-02-21T09:24:38.766Z,99.90
2019-02-21T09:27:00.350Z,99.90
2019-02-21T09:29:27.180Z,98.20
2019-02-21T09:31:53.809Z,97.50
2019-02-21T09:34:21.442Z,93.50
2019-02-21T09:36:48.083Z,94.20
2019-02-21T09:39:16.046Z,94.70
2019-02-21T09:41:43.653Z,94.80
2019-02-21T09:44:11.516Z,95.80
2019-02-21T09:46:40.638Z,95.70
2019-02-21T09:49:07.176Z,92.50
2019-02-21T09:51:36.519Z,90.70
2019-02-21T09:54:03.552Z,90.60
2019-02-21T09:56:31.369Z,90.60
2019-02-21T09:58:57.893Z,88.70
2019-02-21T10:01:24.397Z,85.40
2019-02-21T10:03:50.913Z,84.40
2019-02-21T10:06:17.449Z,84.50
2019-02-21T10:08:44.264Z,83.10
2019-02-21T10:11:12.089Z,80.40
2019-02-21T10:13:39.666Z,77.40
2019-02-21T10:16:07.527Z,76.00
2019-02-21T10:18:34.479Z,74.60
2019-02-21T10:21:03.216Z,75.40
2019-02-21T10:23:30.824Z,78.00
2019-02-21T10:25:57.754Z,72.50
2019-02-21T10:28:24.444Z,74.40
2019-02-21T10:30:52.173Z,73.00
2019-02-21T10:33:18.703Z,73.70
2019-02-21T10:35:50.503Z,75.20
2019-02-21T10:38:20.889Z,76.50
2019-02-21T10:40:47.389Z,78.10
2019-02-21T10:43:14.189Z,79.10
2019-02-21T10:45:47.917Z,78.70
2019-02-21T10:48:15.712Z,81.00
2019-02-21T10:50:42.250Z,85.10
2019-02-21T10:53:09.023Z,87.10
2019-02-21T10:55:35.804Z,84.10
2019-02-21T10:58:02.604Z,86.40
2019-02-21T11:00:30.409Z,85.40
2019-02-21T11:02:58.232Z,87.80
2019-02-21T11:05:25.001Z,87.20
2019-02-21T11:07:51.539Z,85.40
2019-02-21T11:10:20.879Z,86.20
2019-02-21T11:12:47.368Z,83.40
2019-02-21T11:15:16.971Z,83.60
2019-02-21T11:17:44.498Z,85.10
2019-02-21T11:20:16.287Z,85.60
2019-02-21T11:22:42.805Z,83.00
2019-02-21T11:25:11.340Z,87.30
2019-02-21T11:27:38.958Z,88.10
2019-02-21T11:30:14.856Z,85.20
2019-02-21T11:32:41.277Z,86.80
2019-02-21T11:35:07.982Z,84.80
2019-02-21T11:37:42.800Z,85.40
2019-02-21T11:40:05.611Z,89.00
2019-02-21T11:42:32.297Z,89.10
2019-02-21T11:44:59.125Z,87.00
2019-02-21T11:47:25.817Z,87.90
2019-02-21T11:49:52.637Z,90.00
2019-02-21T11:52:19.179Z,90.60
2019-02-21T11:54:45.995Z,91.80
2019-02-21T11:57:12.514Z,90.00
2019-02-21T11:59:39.329Z,89.80
2019-02-21T12:02:06.300Z,90.50
2019-02-21T12:04:32.844Z,90.40
2019-02-21T12:06:59.341Z,91.20
2019-02-21T12:09:26.181Z,93.00
2019-02-21T12:11:52.980Z,92.10
2019-02-21T12:14:19.812Z,92.80
2019-02-21T12:16:46.331Z,93.90
2019-02-21T12:19:13.802Z,94.30
2019-02-21T12:21:40.577Z,95.20
2019-02-21T12:24:07.388Z,95.80
2019-02-21T12:26:33.935Z,95.00
2019-02-21T12:29:01.720Z,95.40
2019-02-21T12:31:28.248Z,95.90
2019-02-21T12:33:55.040Z,96.00
2019-02-21T12:36:21.465Z,96.00
2019-02-21T12:38:47.994Z,96.90
2019-02-21T12:41:14.767Z,95.30
2019-02-21T12:43:41.324Z,95.40
2019-02-21T12:46:07.957Z,97.10
2019-02-21T12:48:35.469Z,97.90
2019-02-21T12:51:02.290Z,98.60
2019-02-21T12:53:29.062Z,98.30
2019-02-21T12:55:55.877Z,98.80
2019-02-21T12:58:22.702Z,99.90
2019-02-21T13:00:49.520Z,99.90
2019-02-21T13:03:16.019Z,99.90
2019-02-21T13:05:44.537Z,99.90
2019-02-21T13:08:10.792Z,99.90
2019-02-21T13:10:37.573Z,99.90
2019-02-21T13:13:04.304Z,99.90
2019-02-21T13:15:30.720Z,99.90
2019-02-21T13:17:57.563Z,99.90
2019-02-21T13:20:23.988Z,99.90
2019-02-21T13:22:50.738Z,99.90
2019-02-21T13:25:18.084Z,99.90
2019-02-21T13:27:44.553Z,99.90
2019-02-21T13:30:14.504Z,99.90
2019-02-21T13:32:41.285Z,99.90
2019-02-21T13:35:08.791Z,99.90
2019-02-21T13:37:35.413Z,99.90
2019-02-21T13:40:05.106Z,99.90
2019-02-21T13:42:31.616Z,99.90
2019-02-21T13:44:58.178Z,99.90
2019-02-21T13:47:24.997Z,99.90
2019-02-21T13:49:51.555Z,99.90
2019-02-21T13:52:18.075Z,99.90
2019-02-21T13:54:44.590Z,99.90
2019-02-21T13:57:11.248Z,99.90
2019-02-21T13:59:37.690Z,99.90
2019-02-21T14:02:04.235Z,99.90
2019-02-21T14:04:30.686Z,99.90
2019-02-21T14:06:57.466Z,99.90
2019-02-21T14:09:24.468Z,99.90
2019-02-21T14:11:51.101Z,99.90
2019-02-21T14:14:17.793Z,99.90
2019-02-21T14:16:46.834Z,99.90
2019-02-21T14:19:13.500Z,99.90
2019-02-21T14:21:39.976Z,99.90
2019-02-21T14:24:06.527Z,99.90
2019-02-21T14:26:33.384Z,99.90
2019-02-21T14:29:00.117Z,99.90
2019-02-21T14:31:26.594Z,99.90
2019-02-21T14:33:53.133Z,99.90
2019-02-21T14:36:19.737Z,99.90
2019-02-21T14:38:46.284Z,99.90
2019-02-21T14:41:13.244Z,99.90
2019-02-21T14:43:39.778Z,99.90
2019-02-21T14:46:06.352Z,99.90
2019-02-21T14:48:32.897Z,99.90
2019-02-21T14:50:59.524Z,99.90
2019-02-21T14:53:26.432Z,99.90
2019-02-21T14:55:52.928Z,99.90
2019-02-21T14:58:19.756Z,99.90
2019-02-21T15:00:46.433Z,99.90
2019-02-21T15:03:21.513Z,99.90
2019-02-21T15:05:41.350Z,99.90
2019-02-21T15:08:08.863Z,99.90
2019-02-21T15:10:35.649Z,99.90
2019-02-21T15:13:02.464Z,99.90
2019-02-21T15:15:29.097Z,99.90
2019-02-21T15:18:07.061Z,99.90
2019-02-21T15:20:35.871Z,99.90
2019-02-21T15:22:54.019Z,99.90
2019-02-21T15:25:20.765Z,99.90
2019-02-21T15:27:47.552Z,99.90
2019-02-21T15:30:24.104Z,99.90
2019-02-21T15:32:50.996Z,99.90
2019-02-21T15:35:19.582Z,99.90
2019-02-21T15:37:46.326Z,99.90
2019-02-21T15:40:13.309Z,99.90
2019-02-21T15:42:39.826Z,99.90
2019-02-21T15:45:22.334Z,99.90
2019-02-21T15:47:41.460Z,99.90
2019-02-21T15:50:10.696Z,99.90
2019-02-21T15:52:37.656Z,99.90
2019-02-21T15:55:12.405Z,99.90
2019-02-21T15:57:36.285Z,99.90
2019-02-21T16:00:07.514Z,99.90
2019-02-21T16:02:34.532Z,99.90
2019-02-21T16:05:03.213Z,99.90
2019-02-21T16:07:30.838Z,99.90
2019-02-21T16:09:57.448Z,99.90
2019-02-21T16:12:24.469Z,99.90
2019-02-21T16:14:51.324Z,99.90
2019-02-21T16:17:18.451Z,99.90
2019-02-21T16:19:45.578Z,99.90
2019-02-21T16:22:13.297Z,99.90
2019-02-21T16:24:39.827Z,99.90
2019-02-21T16:27:07.003Z,99.90
2019-02-21T16:29:34.202Z,99.90
2019-02-21T16:32:00.745Z,99.90
2019-02-21T16:34:27.405Z,99.90
2019-02-21T16:37:02.073Z,99.90
2019-02-21T16:39:23.668Z,99.90
2019-02-21T16:41:50.615Z,99.90
2019-02-21T16:44:17.208Z,99.90
2019-02-21T16:46:43.716Z,99.90
2019-02-21T16:49:10.396Z,99.90
2019-02-21T16:51:36.923Z,99.90
2019-02-21T16:54:05.668Z,99.90
2019-02-21T16:56:33.368Z,99.90
2019-02-21T16:59:03.666Z,99.90
2019-02-21T17:01:30.184Z,99.90
2019-02-21T17:03:57.915Z,99.90
2019-02-21T17:06:24.411Z,99.90
2019-02-21T17:08:51.956Z,99.90
2019-02-21T17:11:19.562Z,99.90
2019-02-21T17:13:52.065Z,99.90
2019-02-21T17:16:24.735Z,99.90
2019-02-21T17:18:55.917Z,99.90
2019-02-21T17:21:22.315Z,99.90
2019-02-21T17:23:50.301Z,99.90
2019-02-21T17:26:16.890Z,99.90
2019-02-21T17:28:43.849Z,99.90
2019-02-21T17:31:10.415Z,99.90
2019-02-21T17:36:33.742Z,99.90
2019-02-21T17:39:00.303Z,99.90
2019-02-21T17:41:26.979Z,99.90
2019-02-21T17:43:53.596Z,99.90
2019-02-21T17:46:20.106Z,99.90
2019-02-21T17:48:46.908Z,99.90
2019-02-21T17:51:13.408Z,99.90
2019-02-21T17:53:40.862Z,99.90
2019-02-21T17:56:07.493Z,99.90
2019-02-21T17:58:34.305Z,99.90
2019-02-21T18:01:00.837Z,99.90
2019-02-21T18:03:27.269Z,99.90
2019-02-21T18:05:56.093Z,99.90
2019-02-21T18:08:22.987Z,99.90
2019-02-21T18:10:49.568Z,99.90
2019-02-21T18:13:16.173Z,99.90
2019-02-21T18:15:43.163Z,99.90
2019-02-21T18:18:09.705Z,99.90
2019-02-21T18:20:36.236Z,99.90
2019-02-21T18:23:03.020Z,99.90
2019-02-21T18:25:36.704Z,99.90
2019-02-21T18:28:03.651Z,99.90
2019-02-21T18:30:31.462Z,99.90
2019-02-21T18:32:59.029Z,99.90
2019-02-21T18:35:25.552Z,99.90
2019-02-21T18:37:52.139Z,99.90
2019-02-21T18:40:21.188Z,99.90
2019-02-21T18:42:49.073Z,99.90
2019-02-21T18:45:15.703Z,99.90
2019-02-21T18:47:42.285Z,99.90
2019-02-21T18:50:10.998Z,99.90
2019-02-21T18:52:39.088Z,99.90
2019-02-21T18:55:06.510Z,99.90
2019-02-21T18:57:34.301Z,99.90
2019-02-21T19:00:00.952Z,99.90
2019-02-21T19:02:27.495Z,99.90
2019-02-21T19:04:54.074Z,99.90
2019-02-21T19:07:20.577Z,99.90
2019-02-21T19:09:49.121Z,99.90
2019-02-21T19:12:15.692Z,99.90
2019-02-21T19:14:42.425Z,99.90
2019-02-21T19:17:09.088Z,99.90
2019-02-21T19:19:37.792Z,99.90
2019-02-21T19:22:04.895Z,99.90
2019-02-21T19:24:32.554Z,99.90
2019-02-21T19:26:59.194Z,99.90
2019-02-21T19:29:25.986Z,99.90
2019-02-21T19:31:52.583Z,99.90
2019-02-21T19:34:19.205Z,99.90
2019-02-21T19:36:46.116Z,99.90
2019-02-21T19:39:12.789Z,99.90
2019-02-21T19:41:39.590Z,99.90
2019-02-21T19:44:09.085Z,99.90
2019-02-21T19:46:35.148Z,99.90
2019-02-21T19:49:01.680Z,99.90
2019-02-21T19:51:29.342Z,99.90
2019-02-21T19:53:55.982Z,99.90
2019-02-21T19:56:22.755Z,99.90
2019-02-21T19:58:49.299Z,99.90
2019-02-21T20:01:15.833Z,99.90
2019-02-21T20:03:42.441Z,99.90
2019-02-21T20:06:08.981Z,99.90
2019-02-21T20:08:35.879Z,99.90
2019-02-21T20:11:02.365Z,99.90
2019-02-21T20:13:29.007Z,99.90
2019-02-21T20:15:55.623Z,99.90
2019-02-21T20:18:22.408Z,99.90
2019-02-21T20:20:48.985Z,99.90
2019-02-21T20:23:16.010Z,99.90
2019-02-21T20:25:42.751Z,99.90
2019-02-21T20:28:09.785Z,99.90
2019-02-21T20:30:36.436Z,99.90
2019-02-21T20:33:03.364Z,99.90
2019-02-21T20:35:30.434Z,99.90
2019-02-21T20:37:57.333Z,99.90
2019-02-21T20:40:23.969Z,99.90
2019-02-21T20:42:50.560Z,99.90
2019-02-21T20:45:17.345Z,99.90
2019-02-21T20:47:43.769Z,99.90
2019-02-21T20:50:10.894Z,99.90
2019-02-21T20:52:38.497Z,99.90
2019-02-21T20:55:06.235Z,99.90
2019-02-21T20:57:32.957Z,99.90
2019-02-21T20:59:59.656Z,99.90
2019-02-21T21:02:26.554Z,99.90
2019-02-21T21:04:53.227Z,99.90
2019-02-21T21:07:25.060Z,99.90
2019-02-21T21:09:48.510Z,99.90
2019-02-21T21:12:16.357Z,99.90
2019-02-21T21:14:43.136Z,99.90
2019-02-21T21:17:09.831Z,99.90
2019-02-21T21:19:36.688Z,99.90
2019-02-21T21:22:03.592Z,99.90
2019-02-21T21:24:30.414Z,99.90
2019-02-21T21:26:57.240Z,99.90
2019-02-21T21:29:23.886Z,99.90
2019-02-21T21:31:50.486Z,99.90
2019-02-21T21:34:17.020Z,99.90
2019-02-21T21:36:43.540Z,99.90
2019-02-21T21:39:10.069Z,99.90
2019-02-21T21:41:37.797Z,99.90
2019-02-21T21:44:04.209Z,99.90
2019-02-21T21:46:30.874Z,99.90
2019-02-21T21:48:57.656Z,99.90
2019-02-21T21:51:24.476Z,99.90
2019-02-21T21:53:50.916Z,99.90
2019-02-21T21:56:17.608Z,99.90
2019-02-21T21:58:44.164Z,99.90
2019-02-21T22:01:10.695Z,99.90
2019-02-21T22:03:37.337Z,99.90
2019-02-21T22:06:03.848Z,99.90
2019-02-21T22:08:31.506Z,99.90
2019-02-21T22:10:58.045Z,99.90
2019-02-21T22:13:24.651Z,99.90
2019-02-21T22:15:51.169Z,99.90
2019-02-21T22:18:17.683Z,99.90
2019-02-21T22:20:45.604Z,99.90
2019-02-21T22:23:12.132Z,99.90
2019-02-21T22:25:38.881Z,99.90
2019-02-21T22:28:05.312Z,99.90
2019-02-21T22:30:31.887Z,99.90
2019-02-21T22:32:58.380Z,99.90
2019-02-21T22:35:24.822Z,99.90
2019-02-21T22:37:51.325Z,99.90
2019-02-21T22:40:19.112Z,99.90
2019-02-21T22:42:45.848Z,99.90
2019-02-21T22:45:12.566Z,99.90
2019-02-21T22:47:39.095Z,99.90
2019-02-21T22:50:09.035Z,99.90
2019-02-21T22:52:35.600Z,99.90
2019-02-21T22:55:09.869Z,99.90
2019-02-21T22:57:31.026Z,99.90
2019-02-21T22:59:57.468Z,99.90
2019-02-21T23:02:24.801Z,99.90
2019-02-21T23:04:55.285Z,99.90
2019-02-21T23:07:25.849Z,99.90
2019-02-21T23:09:52.290Z,99.90
2019-02-21T23:12:18.801Z,99.90
2019-02-21T23:14:45.356Z,99.90
2019-02-21T23:17:11.868Z,99.90
2019-02-21T23:19:38.433Z,99.90
2019-02-21T23:22:04.983Z,99.90
2019-02-21T23:24:31.495Z,99.90
2019-02-21T23:26:58.221Z,99.90
2019-02-21T23:29:25.879Z,99.90
2019-02-21T23:31:52.765Z,99.90
2019-02-21T23:34:30.788Z,99.90
2019-02-21T23:36:57.318Z,99.90
2019-02-21T23:39:24.116Z,99.90
2019-02-21T23:41:50.689Z,99.90
2019-02-21T23:44:17.204Z,99.90
2019-02-21T23:46:43.644Z,99.90
2019-02-21T23:49:10.193Z,99.90
2019-02-21T23:51:36.691Z,99.90
2019-02-21T23:54:03.553Z,99.90
2019-02-21T23:56:30.328Z,99.90
2019-02-21T23:58:57.104Z,99.90
